Monkey Run, Missouri
Current Conditions -  °F | °C
As of 8:15 AM on Thursday 29 Jan 2015 (Local Time) from KHAE Reporting Station
Overcast Overcast  
Wind Chill: 28°   Ceiling: 1900
Heat Index: 37°   Visibility: 10mi
Dew Point: 30°   Wind: 16mph
Humidity: 75%   Direction: 320°NW
Pressure: 30.08"   Gusts: 31mph
Location:  39.7145°N, 91.4209°W
Report Text: KHAE 291415Z AUTO 32014G27KT 10SM OVC019 03/M01 A3008 RMK AO2
Loading
Personal Weather Stations






























Interactive Weather Map New forecast layout! Learn more

10-Day Weather Forecast

Advertisements
Track Severe Weather on mobile